sensor_id;sensor_type;location;lat;lon;timestamp;P1;durP1;ratioP1;P2;durP2;ratioP2
18364;SDS011;9309;52.126;11.616;2022-09-09T00:00:23;14.20;;;9.07;;
18364;SDS011;9309;52.126;11.616;2022-09-09T00:02:53;14.10;;;9.17;;
18364;SDS011;9309;52.126;11.616;2022-09-09T00:05:29;12.47;;;9.00;;
18364;SDS011;9309;52.126;11.616;2022-09-09T00:08:03;13.63;;;9.77;;
18364;SDS011;9309;52.126;11.616;2022-09-09T00:10:32;10.90;;;8.83;;
18364;SDS011;9309;52.126;11.616;2022-09-09T00:13:05;11.70;;;9.67;;
18364;SDS011;9309;52.126;11.616;2022-09-09T00:15:44;12.03;;;9.20;;
18364;SDS011;9309;52.126;11.616;2022-09-09T00:18:21;9.77;;;8.30;;
18364;SDS011;9309;52.126;11.616;2022-09-09T00:20:55;14.23;;;9.33;;
18364;SDS011;9309;52.126;11.616;2022-09-09T00:23:30;11.67;;;8.70;;
18364;SDS011;9309;52.126;11.616;2022-09-09T00:26:02;8.93;;;7.67;;
18364;SDS011;9309;52.126;11.616;2022-09-09T00:28:33;9.40;;;7.80;;
18364;SDS011;9309;52.126;11.616;2022-09-09T00:31:08;11.60;;;8.27;;
18364;SDS011;9309;52.126;11.616;2022-09-09T00:33:39;8.57;;;7.67;;
18364;SDS011;9309;52.126;11.616;2022-09-09T00:36:09;8.40;;;7.60;;
18364;SDS011;9309;52.126;11.616;2022-09-09T00:38:44;10.93;;;7.40;;
18364;SDS011;9309;52.126;11.616;2022-09-09T00:41:16;8.13;;;7.33;;
18364;SDS011;9309;52.126;11.616;2022-09-09T00:43:50;7.83;;;6.87;;
18364;SDS011;9309;52.126;11.616;2022-09-09T00:46:38;7.73;;;6.97;;
18364;SDS011;9309;52.126;11.616;2022-09-09T00:49:31;7.10;;;6.60;;
18364;SDS011;9309;52.126;11.616;2022-09-09T00:52:08;7.77;;;6.97;;
18364;SDS011;9309;52.126;11.616;2022-09-09T00:54:50;8.43;;;7.50;;
18364;SDS011;9309;52.126;11.616;2022-09-09T00:57:25;8.60;;;7.60;;
18364;SDS011;9309;52.126;11.616;2022-09-09T00:59:58;7.87;;;7.17;;
18364;SDS011;9309;52.126;11.616;2022-09-09T01:02:44;10.87;;;7.23;;
18364;SDS011;9309;52.126;11.616;2022-09-09T01:05:30;7.73;;;6.93;;
18364;SDS011;9309;52.126;11.616;2022-09-09T01:08:02;7.80;;;7.00;;
18364;SDS011;9309;52.126;11.616;2022-09-09T01:10:39;7.30;;;6.70;;
18364;SDS011;9309;52.126;11.616;2022-09-09T01:13:15;7.60;;;6.90;;
18364;SDS011;9309;52.126;11.616;2022-09-09T01:15:48;8.37;;;7.30;;
18364;SDS011;9309;52.126;11.616;2022-09-09T01:18:19;7.57;;;6.97;;
18364;SDS011;9309;52.126;11.616;2022-09-09T01:20:53;7.27;;;6.67;;
18364;SDS011;9309;52.126;11.616;2022-09-09T01:23:30;6.83;;;6.33;;
18364;SDS011;9309;52.126;11.616;2022-09-09T01:26:21;6.97;;;6.37;;
18364;SDS011;9309;52.126;11.616;2022-09-09T01:28:52;7.60;;;6.97;;
18364;SDS011;9309;52.126;11.616;2022-09-09T01:31:26;6.47;;;5.97;;
18364;SDS011;9309;52.126;11.616;2022-09-09T01:33:56;6.93;;;6.30;;
18364;SDS011;9309;52.126;11.616;2022-09-09T01:36:26;6.37;;;5.87;;
18364;SDS011;9309;52.126;11.616;2022-09-09T01:38:59;8.83;;;6.30;;
18364;SDS011;9309;52.126;11.616;2022-09-09T01:41:28;6.97;;;6.00;;
18364;SDS011;9309;52.126;11.616;2022-09-09T01:44:08;9.37;;;6.07;;
18364;SDS011;9309;52.126;11.616;2022-09-09T01:46:37;6.03;;;5.50;;
18364;SDS011;9309;52.126;11.616;2022-09-09T01:49:09;6.07;;;5.67;;
18364;SDS011;9309;52.126;11.616;2022-09-09T01:51:38;6.03;;;5.67;;
18364;SDS011;9309;52.126;11.616;2022-09-09T01:54:10;6.30;;;5.90;;
18364;SDS011;9309;52.126;11.616;2022-09-09T01:56:42;6.10;;;5.67;;
18364;SDS011;9309;52.126;11.616;2022-09-09T01:59:23;5.70;;;5.40;;
18364;SDS011;9309;52.126;11.616;2022-09-09T02:02:06;6.23;;;5.63;;
18364;SDS011;9309;52.126;11.616;2022-09-09T02:04:41;5.80;;;5.40;;
18364;SDS011;9309;52.126;11.616;2022-09-09T02:07:19;5.53;;;5.23;;
18364;SDS011;9309;52.126;11.616;2022-09-09T02:09:59;5.67;;;5.33;;
18364;SDS011;9309;52.126;11.616;2022-09-09T02:12:32;5.57;;;5.27;;
18364;SDS011;9309;52.126;11.616;2022-09-09T02:15:03;4.97;;;4.70;;
18364;SDS011;9309;52.126;11.616;2022-09-09T02:17:43;5.30;;;5.00;;
18364;SDS011;9309;52.126;11.616;2022-09-09T02:20:15;4.83;;;4.63;;
18364;SDS011;9309;52.126;11.616;2022-09-09T02:22:50;5.07;;;4.77;;
18364;SDS011;9309;52.126;11.616;2022-09-09T02:25:22;4.63;;;4.43;;
18364;SDS011;9309;52.126;11.616;2022-09-09T02:27:57;4.80;;;4.60;;
18364;SDS011;9309;52.126;11.616;2022-09-09T02:30:25;5.83;;;5.07;;
18364;SDS011;9309;52.126;11.616;2022-09-09T02:32:57;4.50;;;4.40;;
18364;SDS011;9309;52.126;11.616;2022-09-09T02:35:42;5.10;;;4.70;;
18364;SDS011;9309;52.126;11.616;2022-09-09T02:38:13;4.43;;;4.33;;
18364;SDS011;9309;52.126;11.616;2022-09-09T02:40:52;4.60;;;4.40;;
18364;SDS011;9309;52.126;11.616;2022-09-09T02:43:21;5.33;;;5.00;;
18364;SDS011;9309;52.126;11.616;2022-09-09T02:45:50;5.00;;;4.80;;
18364;SDS011;9309;52.126;11.616;2022-09-09T02:48:25;5.20;;;5.00;;
18364;SDS011;9309;52.126;11.616;2022-09-09T02:50:58;5.53;;;5.17;;
18364;SDS011;9309;52.126;11.616;2022-09-09T02:53:34;4.70;;;4.50;;
18364;SDS011;9309;52.126;11.616;2022-09-09T02:56:12;5.00;;;4.70;;
18364;SDS011;9309;52.126;11.616;2022-09-09T02:58:46;4.83;;;4.73;;
18364;SDS011;9309;52.126;11.616;2022-09-09T03:01:14;5.10;;;4.83;;
18364;SDS011;9309;52.126;11.616;2022-09-09T03:03:42;5.30;;;5.03;;
18364;SDS011;9309;52.126;11.616;2022-09-09T03:06:14;5.07;;;4.87;;
18364;SDS011;9309;52.126;11.616;2022-09-09T03:08:44;5.17;;;4.97;;
18364;SDS011;9309;52.126;11.616;2022-09-09T03:11:11;4.63;;;4.43;;
18364;SDS011;9309;52.126;11.616;2022-09-09T03:13:40;4.90;;;4.67;;
18364;SDS011;9309;52.126;11.616;2022-09-09T03:16:10;4.83;;;4.63;;
18364;SDS011;9309;52.126;11.616;2022-09-09T03:18:42;5.43;;;5.03;;
18364;SDS011;9309;52.126;11.616;2022-09-09T03:21:11;5.43;;;5.03;;
18364;SDS011;9309;52.126;11.616;2022-09-09T03:23:40;5.60;;;5.30;;
18364;SDS011;9309;52.126;11.616;2022-09-09T03:26:07;5.70;;;5.40;;
18364;SDS011;9309;52.126;11.616;2022-09-09T03:28:42;5.33;;;5.13;;
18364;SDS011;9309;52.126;11.616;2022-09-09T03:31:12;5.60;;;5.30;;
18364;SDS011;9309;52.126;11.616;2022-09-09T03:33:40;6.97;;;6.47;;
18364;SDS011;9309;52.126;11.616;2022-09-09T03:36:10;5.70;;;5.40;;
18364;SDS011;9309;52.126;11.616;2022-09-09T03:38:38;7.57;;;6.03;;
18364;SDS011;9309;52.126;11.616;2022-09-09T03:41:06;5.57;;;5.30;;
18364;SDS011;9309;52.126;11.616;2022-09-09T03:43:34;5.63;;;5.43;;
18364;SDS011;9309;52.126;11.616;2022-09-09T03:46:03;5.83;;;5.30;;
18364;SDS011;9309;52.126;11.616;2022-09-09T03:48:31;5.63;;;5.13;;
18364;SDS011;9309;52.126;11.616;2022-09-09T03:50:58;5.00;;;4.80;;
18364;SDS011;9309;52.126;11.616;2022-09-09T03:53:27;6.07;;;5.60;;
18364;SDS011;9309;52.126;11.616;2022-09-09T03:55:56;5.90;;;5.50;;
18364;SDS011;9309;52.126;11.616;2022-09-09T03:58:26;5.90;;;5.40;;
18364;SDS011;9309;52.126;11.616;2022-09-09T04:00:58;6.20;;;5.80;;
18364;SDS011;9309;52.126;11.616;2022-09-09T04:03:27;5.70;;;5.30;;
18364;SDS011;9309;52.126;11.616;2022-09-09T04:05:57;5.17;;;4.97;;
18364;SDS011;9309;52.126;11.616;2022-09-09T04:08:27;6.00;;;5.13;;
18364;SDS011;9309;52.126;11.616;2022-09-09T04:10:55;6.50;;;5.73;;
18364;SDS011;9309;52.126;11.616;2022-09-09T04:13:24;6.53;;;5.03;;
18364;SDS011;9309;52.126;11.616;2022-09-09T04:15:51;5.80;;;5.40;;
18364;SDS011;9309;52.126;11.616;2022-09-09T04:18:20;5.93;;;5.57;;
18364;SDS011;9309;52.126;11.616;2022-09-09T04:20:47;7.03;;;5.50;;
18364;SDS011;9309;52.126;11.616;2022-09-09T04:23:18;6.10;;;5.50;;
18364;SDS011;9309;52.126;11.616;2022-09-09T04:25:45;7.60;;;5.43;;
18364;SDS011;9309;52.126;11.616;2022-09-09T04:28:13;5.70;;;5.30;;
18364;SDS011;9309;52.126;11.616;2022-09-09T04:30:41;6.00;;;5.50;;
18364;SDS011;9309;52.126;11.616;2022-09-09T04:33:09;6.00;;;5.50;;
18364;SDS011;9309;52.126;11.616;2022-09-09T04:35:37;6.23;;;5.70;;
18364;SDS011;9309;52.126;11.616;2022-09-09T04:38:04;5.53;;;5.23;;
18364;SDS011;9309;52.126;11.616;2022-09-09T04:40:34;5.87;;;5.47;;
18364;SDS011;9309;52.126;11.616;2022-09-09T04:43:02;5.93;;;5.53;;
18364;SDS011;9309;52.126;11.616;2022-09-09T04:45:30;6.03;;;5.57;;
18364;SDS011;9309;52.126;11.616;2022-09-09T04:47:57;5.73;;;5.23;;
18364;SDS011;9309;52.126;11.616;2022-09-09T04:50:24;6.63;;;5.73;;
18364;SDS011;9309;52.126;11.616;2022-09-09T04:52:59;6.20;;;5.80;;
18364;SDS011;9309;52.126;11.616;2022-09-09T04:55:28;6.33;;;5.87;;
18364;SDS011;9309;52.126;11.616;2022-09-09T04:57:56;6.53;;;5.93;;
18364;SDS011;9309;52.126;11.616;2022-09-09T05:00:23;7.87;;;6.10;;
18364;SDS011;9309;52.126;11.616;2022-09-09T05:02:51;5.77;;;5.47;;
18364;SDS011;9309;52.126;11.616;2022-09-09T05:05:18;6.20;;;5.70;;
18364;SDS011;9309;52.126;11.616;2022-09-09T05:07:46;6.73;;;5.90;;
18364;SDS011;9309;52.126;11.616;2022-09-09T05:10:13;7.73;;;6.33;;
18364;SDS011;9309;52.126;11.616;2022-09-09T05:12:42;11.27;;;6.17;;
18364;SDS011;9309;52.126;11.616;2022-09-09T05:15:19;6.27;;;5.77;;
18364;SDS011;9309;52.126;11.616;2022-09-09T05:17:46;6.10;;;5.60;;
18364;SDS011;9309;52.126;11.616;2022-09-09T05:20:16;7.23;;;6.17;;
18364;SDS011;9309;52.126;11.616;2022-09-09T05:22:43;7.33;;;6.63;;
18364;SDS011;9309;52.126;11.616;2022-09-09T05:25:10;8.60;;;6.57;;
18364;SDS011;9309;52.126;11.616;2022-09-09T05:27:38;7.20;;;6.53;;
18364;SDS011;9309;52.126;11.616;2022-09-09T05:30:06;11.87;;;6.60;;
18364;SDS011;9309;52.126;11.616;2022-09-09T05:32:35;8.63;;;6.80;;
18364;SDS011;9309;52.126;11.616;2022-09-09T05:35:02;6.90;;;6.30;;
18364;SDS011;9309;52.126;11.616;2022-09-09T05:37:30;8.43;;;7.30;;
18364;SDS011;9309;52.126;11.616;2022-09-09T05:39:57;10.80;;;6.67;;
18364;SDS011;9309;52.126;11.616;2022-09-09T05:42:29;6.77;;;5.93;;
18364;SDS011;9309;52.126;11.616;2022-09-09T05:44:57;7.63;;;6.97;;
18364;SDS011;9309;52.126;11.616;2022-09-09T05:47:24;7.93;;;6.80;;
18364;SDS011;9309;52.126;11.616;2022-09-09T05:49:54;7.27;;;6.37;;
18364;SDS011;9309;52.126;11.616;2022-09-09T05:52:22;6.30;;;5.87;;
18364;SDS011;9309;52.126;11.616;2022-09-09T05:54:50;6.17;;;5.57;;
18364;SDS011;9309;52.126;11.616;2022-09-09T05:57:20;7.73;;;6.00;;
18364;SDS011;9309;52.126;11.616;2022-09-09T05:59:47;5.93;;;5.50;;
18364;SDS011;9309;52.126;11.616;2022-09-09T06:02:15;5.40;;;5.00;;
18364;SDS011;9309;52.126;11.616;2022-09-09T06:04:42;5.03;;;4.57;;
18364;SDS011;9309;52.126;11.616;2022-09-09T06:07:11;4.90;;;4.50;;
18364;SDS011;9309;52.126;11.616;2022-09-09T06:09:39;5.13;;;4.67;;
18364;SDS011;9309;52.126;11.616;2022-09-09T06:12:07;8.10;;;6.20;;
18364;SDS011;9309;52.126;11.616;2022-09-09T06:14:35;6.67;;;5.80;;
18364;SDS011;9309;52.126;11.616;2022-09-09T06:17:03;5.30;;;4.80;;
18364;SDS011;9309;52.126;11.616;2022-09-09T06:19:30;4.70;;;4.40;;
18364;SDS011;9309;52.126;11.616;2022-09-09T06:21:58;4.00;;;3.80;;
18364;SDS011;9309;52.126;11.616;2022-09-09T06:24:28;6.13;;;4.17;;
18364;SDS011;9309;52.126;11.616;2022-09-09T06:26:56;9.00;;;4.87;;
18364;SDS011;9309;52.126;11.616;2022-09-09T06:29:27;6.83;;;4.50;;
18364;SDS011;9309;52.126;11.616;2022-09-09T06:31:54;5.87;;;4.10;;
18364;SDS011;9309;52.126;11.616;2022-09-09T06:34:23;4.37;;;4.07;;
18364;SDS011;9309;52.126;11.616;2022-09-09T06:36:54;4.23;;;3.93;;
18364;SDS011;9309;52.126;11.616;2022-09-09T06:39:22;15.07;;;4.60;;
18364;SDS011;9309;52.126;11.616;2022-09-09T06:41:52;9.83;;;3.90;;
18364;SDS011;9309;52.126;11.616;2022-09-09T06:44:49;4.53;;;4.33;;
18364;SDS011;9309;52.126;11.616;2022-09-09T06:47:28;5.27;;;4.30;;
18364;SDS011;9309;52.126;11.616;2022-09-09T06:49:57;5.83;;;4.07;;
18364;SDS011;9309;52.126;11.616;2022-09-09T06:52:24;4.80;;;4.37;;
18364;SDS011;9309;52.126;11.616;2022-09-09T06:54:52;3.80;;;3.60;;
18364;SDS011;9309;52.126;11.616;2022-09-09T06:57:22;4.30;;;3.97;;
18364;SDS011;9309;52.126;11.616;2022-09-09T06:59:50;2.83;;;2.73;;
18364;SDS011;9309;52.126;11.616;2022-09-09T07:02:17;4.00;;;3.70;;
18364;SDS011;9309;52.126;11.616;2022-09-09T07:04:46;3.60;;;3.40;;
18364;SDS011;9309;52.126;11.616;2022-09-09T07:07:13;4.97;;;3.47;;
18364;SDS011;9309;52.126;11.616;2022-09-09T07:09:40;3.20;;;3.00;;
18364;SDS011;9309;52.126;11.616;2022-09-09T07:12:08;7.70;;;3.80;;
18364;SDS011;9309;52.126;11.616;2022-09-09T07:14:40;3.97;;;3.70;;
18364;SDS011;9309;52.126;11.616;2022-09-09T07:17:07;3.37;;;3.27;;
18364;SDS011;9309;52.126;11.616;2022-09-09T07:19:37;3.87;;;3.57;;
18364;SDS011;9309;52.126;11.616;2022-09-09T07:22:05;3.60;;;3.30;;
18364;SDS011;9309;52.126;11.616;2022-09-09T07:24:33;3.50;;;3.30;;
18364;SDS011;9309;52.126;11.616;2022-09-09T07:27:00;2.77;;;2.67;;
18364;SDS011;9309;52.126;11.616;2022-09-09T07:29:28;4.27;;;3.03;;
18364;SDS011;9309;52.126;11.616;2022-09-09T07:31:57;2.90;;;2.50;;
18364;SDS011;9309;52.126;11.616;2022-09-09T07:34:30;2.87;;;2.57;;
18364;SDS011;9309;52.126;11.616;2022-09-09T07:36:57;2.97;;;2.77;;
18364;SDS011;9309;52.126;11.616;2022-09-09T07:39:26;2.47;;;2.40;;
18364;SDS011;9309;52.126;11.616;2022-09-09T07:41:53;2.70;;;2.50;;
18364;SDS011;9309;52.126;11.616;2022-09-09T07:44:22;3.63;;;2.33;;
18364;SDS011;9309;52.126;11.616;2022-09-09T07:47:02;2.43;;;2.23;;
18364;SDS011;9309;52.126;11.616;2022-09-09T07:49:35;2.20;;;2.10;;
18364;SDS011;9309;52.126;11.616;2022-09-09T07:52:03;2.77;;;2.57;;
18364;SDS011;9309;52.126;11.616;2022-09-09T07:54:31;2.47;;;2.27;;
18364;SDS011;9309;52.126;11.616;2022-09-09T07:56:58;2.77;;;2.57;;
18364;SDS011;9309;52.126;11.616;2022-09-09T07:59:27;2.70;;;2.60;;
18364;SDS011;9309;52.126;11.616;2022-09-09T08:01:55;1.80;;;1.70;;
18364;SDS011;9309;52.126;11.616;2022-09-09T08:04:28;3.40;;;1.80;;
18364;SDS011;9309;52.126;11.616;2022-09-09T08:06:56;2.10;;;1.80;;
18364;SDS011;9309;52.126;11.616;2022-09-09T08:09:25;2.37;;;2.17;;
18364;SDS011;9309;52.126;11.616;2022-09-09T08:11:58;2.07;;;1.87;;
18364;SDS011;9309;52.126;11.616;2022-09-09T08:14:27;2.50;;;2.07;;
18364;SDS011;9309;52.126;11.616;2022-09-09T08:16:55;2.47;;;2.00;;
18364;SDS011;9309;52.126;11.616;2022-09-09T08:19:26;2.30;;;2.00;;
18364;SDS011;9309;52.126;11.616;2022-09-09T08:21:55;1.90;;;1.80;;
18364;SDS011;9309;52.126;11.616;2022-09-09T08:24:22;1.90;;;1.70;;
18364;SDS011;9309;52.126;11.616;2022-09-09T08:26:50;2.60;;;1.83;;
18364;SDS011;9309;52.126;11.616;2022-09-09T08:29:21;2.13;;;1.73;;
18364;SDS011;9309;52.126;11.616;2022-09-09T08:31:51;1.60;;;1.50;;
18364;SDS011;9309;52.126;11.616;2022-09-09T08:34:20;1.70;;;1.43;;
18364;SDS011;9309;52.126;11.616;2022-09-09T08:36:50;2.53;;;1.50;;
18364;SDS011;9309;52.126;11.616;2022-09-09T08:39:22;3.47;;;1.60;;
18364;SDS011;9309;52.126;11.616;2022-09-09T08:41:58;1.73;;;1.60;;
18364;SDS011;9309;52.126;11.616;2022-09-09T08:44:48;3.60;;;2.00;;
18364;SDS011;9309;52.126;11.616;2022-09-09T08:47:25;3.33;;;1.50;;
18364;SDS011;9309;52.126;11.616;2022-09-09T08:50:05;3.77;;;1.47;;
18364;SDS011;9309;52.126;11.616;2022-09-09T08:52:45;4.17;;;1.43;;
18364;SDS011;9309;52.126;11.616;2022-09-09T08:55:20;1.37;;;1.27;;
18364;SDS011;9309;52.126;11.616;2022-09-09T08:57:53;2.27;;;1.50;;
18364;SDS011;9309;52.126;11.616;2022-09-09T09:00:25;1.90;;;1.80;;
18364;SDS011;9309;52.126;11.616;2022-09-09T09:03:13;1.90;;;1.80;;
18364;SDS011;9309;52.126;11.616;2022-09-09T09:05:49;1.33;;;1.30;;
18364;SDS011;9309;52.126;11.616;2022-09-09T09:08:26;1.10;;;1.10;;
18364;SDS011;9309;52.126;11.616;2022-09-09T09:10:57;1.50;;;1.40;;
18364;SDS011;9309;52.126;11.616;2022-09-09T09:13:30;2.20;;;1.40;;
18364;SDS011;9309;52.126;11.616;2022-09-09T09:16:03;1.30;;;1.30;;
18364;SDS011;9309;52.126;11.616;2022-09-09T09:18:39;1.20;;;1.20;;
18364;SDS011;9309;52.126;11.616;2022-09-09T09:21:08;1.07;;;0.90;;
18364;SDS011;9309;52.126;11.616;2022-09-09T09:23:43;2.40;;;2.00;;
18364;SDS011;9309;52.126;11.616;2022-09-09T09:26:16;1.13;;;1.13;;
18364;SDS011;9309;52.126;11.616;2022-09-09T09:28:44;1.37;;;1.10;;
18364;SDS011;9309;52.126;11.616;2022-09-09T09:31:15;1.10;;;1.10;;
18364;SDS011;9309;52.126;11.616;2022-09-09T09:33:47;2.10;;;1.30;;
18364;SDS011;9309;52.126;11.616;2022-09-09T09:36:17;1.23;;;1.10;;
18364;SDS011;9309;52.126;11.616;2022-09-09T09:38:54;1.77;;;1.03;;
18364;SDS011;9309;52.126;11.616;2022-09-09T09:41:30;1.00;;;1.00;;
18364;SDS011;9309;52.126;11.616;2022-09-09T09:43:58;1.27;;;1.17;;
18364;SDS011;9309;52.126;11.616;2022-09-09T09:46:27;1.87;;;1.23;;
18364;SDS011;9309;52.126;11.616;2022-09-09T09:49:08;1.13;;;1.03;;
18364;SDS011;9309;52.126;11.616;2022-09-09T09:51:37;1.63;;;1.30;;
18364;SDS011;9309;52.126;11.616;2022-09-09T09:54:08;1.55;;;1.10;;
18364;SDS011;9309;52.126;11.616;2022-09-09T09:56:45;1.55;;;1.10;;
18364;SDS011;9309;52.126;11.616;2022-09-09T09:59:23;4.70;;;1.98;;
18364;SDS011;9309;52.126;11.616;2022-09-09T10:02:13;1.52;;;1.10;;
18364;SDS011;9309;52.126;11.616;2022-09-09T10:04:48;2.80;;;1.55;;
18364;SDS011;9309;52.126;11.616;2022-09-09T10:07:27;1.25;;;1.20;;
18364;SDS011;9309;52.126;11.616;2022-09-09T10:09:56;1.65;;;1.38;;
18364;SDS011;9309;52.126;11.616;2022-09-09T10:12:26;1.65;;;1.15;;
18364;SDS011;9309;52.126;11.616;2022-09-09T10:15:05;1.38;;;1.17;;
18364;SDS011;9309;52.126;11.616;2022-09-09T10:17:51;1.00;;;1.00;;
18364;SDS011;9309;52.126;11.616;2022-09-09T10:20:30;2.40;;;1.20;;
18364;SDS011;9309;52.126;11.616;2022-09-09T10:23:07;2.58;;;1.20;;
18364;SDS011;9309;52.126;11.616;2022-09-09T10:25:49;0.88;;;0.88;;
18364;SDS011;9309;52.126;11.616;2022-09-09T10:28:39;1.15;;;1.05;;
18364;SDS011;9309;52.126;11.616;2022-09-09T10:31:21;1.08;;;1.08;;
18364;SDS011;9309;52.126;11.616;2022-09-09T10:33:55;4.82;;;1.30;;
18364;SDS011;9309;52.126;11.616;2022-09-09T10:36:28;2.60;;;1.25;;
18364;SDS011;9309;52.126;11.616;2022-09-09T10:38:57;1.50;;;1.05;;
18364;SDS011;9309;52.126;11.616;2022-09-09T10:41:39;3.45;;;1.05;;
18364;SDS011;9309;52.126;11.616;2022-09-09T10:44:21;1.10;;;0.95;;
18364;SDS011;9309;52.126;11.616;2022-09-09T10:47:11;1.70;;;0.80;;
18364;SDS011;9309;52.126;11.616;2022-09-09T10:50:01;1.27;;;0.82;;
18364;SDS011;9309;52.126;11.616;2022-09-09T10:52:45;3.58;;;1.05;;
18364;SDS011;9309;52.126;11.616;2022-09-09T10:55:23;0.80;;;0.80;;
18364;SDS011;9309;52.126;11.616;2022-09-09T10:57:55;1.25;;;0.88;;
18364;SDS011;9309;52.126;11.616;2022-09-09T11:00:24;1.90;;;1.50;;
18364;SDS011;9309;52.126;11.616;2022-09-09T11:03:01;1.95;;;1.17;;
18364;SDS011;9309;52.126;11.616;2022-09-09T11:05:30;0.73;;;0.70;;
18364;SDS011;9309;52.126;11.616;2022-09-09T11:08:03;0.88;;;0.88;;
18364;SDS011;9309;52.126;11.616;2022-09-09T11:10:34;1.02;;;0.80;;
18364;SDS011;9309;52.126;11.616;2022-09-09T11:13:09;0.90;;;0.90;;
18364;SDS011;9309;52.126;11.616;2022-09-09T11:15:41;1.13;;;0.95;;
18364;SDS011;9309;52.126;11.616;2022-09-09T11:18:13;2.28;;;1.00;;
18364;SDS011;9309;52.126;11.616;2022-09-09T11:20:45;0.65;;;0.65;;
18364;SDS011;9309;52.126;11.616;2022-09-09T11:23:16;1.70;;;0.95;;
18364;SDS011;9309;52.126;11.616;2022-09-09T11:25:50;1.58;;;0.90;;
18364;SDS011;9309;52.126;11.616;2022-09-09T11:28:31;0.95;;;0.93;;
18364;SDS011;9309;52.126;11.616;2022-09-09T11:31:09;0.77;;;0.77;;
18364;SDS011;9309;52.126;11.616;2022-09-09T11:33:56;1.48;;;0.80;;
18364;SDS011;9309;52.126;11.616;2022-09-09T11:36:40;0.80;;;0.80;;
18364;SDS011;9309;52.126;11.616;2022-09-09T11:39:26;1.20;;;0.60;;
18364;SDS011;9309;52.126;11.616;2022-09-09T11:42:20;0.80;;;0.80;;
18364;SDS011;9309;52.126;11.616;2022-09-09T11:44:50;0.68;;;0.63;;
18364;SDS011;9309;52.126;11.616;2022-09-09T11:47:20;0.98;;;0.95;;
18364;SDS011;9309;52.126;11.616;2022-09-09T11:49:51;2.42;;;0.80;;
18364;SDS011;9309;52.126;11.616;2022-09-09T11:52:22;1.10;;;0.73;;
18364;SDS011;9309;52.126;11.616;2022-09-09T11:55:07;0.70;;;0.70;;
18364;SDS011;9309;52.126;11.616;2022-09-09T11:57:35;1.23;;;0.77;;
18364;SDS011;9309;52.126;11.616;2022-09-09T12:00:05;1.23;;;0.60;;
18364;SDS011;9309;52.126;11.616;2022-09-09T12:02:47;2.38;;;1.15;;
18364;SDS011;9309;52.126;11.616;2022-09-09T12:05:15;0.68;;;0.57;;
18364;SDS011;9309;52.126;11.616;2022-09-09T12:07:46;0.85;;;0.75;;
18364;SDS011;9309;52.126;11.616;2022-09-09T12:10:22;1.08;;;0.88;;
18364;SDS011;9309;52.126;11.616;2022-09-09T12:12:53;0.77;;;0.60;;
18364;SDS011;9309;52.126;11.616;2022-09-09T12:15:25;1.08;;;0.70;;
18364;SDS011;9309;52.126;11.616;2022-09-09T12:17:54;1.10;;;0.82;;
18364;SDS011;9309;52.126;11.616;2022-09-09T12:20:23;0.70;;;0.70;;
18364;SDS011;9309;52.126;11.616;2022-09-09T12:23:11;0.70;;;0.70;;
18364;SDS011;9309;52.126;11.616;2022-09-09T12:25:57;1.00;;;0.88;;
18364;SDS011;9309;52.126;11.616;2022-09-09T12:28:39;0.88;;;0.80;;
18364;SDS011;9309;52.126;11.616;2022-09-09T12:31:14;1.55;;;0.85;;
18364;SDS011;9309;52.126;11.616;2022-09-09T12:33:47;0.93;;;0.80;;
18364;SDS011;9309;52.126;11.616;2022-09-09T12:36:14;1.88;;;0.90;;
18364;SDS011;9309;52.126;11.616;2022-09-09T12:38:43;1.02;;;0.70;;
18364;SDS011;9309;52.126;11.616;2022-09-09T12:41:17;1.92;;;0.77;;
18364;SDS011;9309;52.126;11.616;2022-09-09T12:43:46;0.75;;;0.75;;
18364;SDS011;9309;52.126;11.616;2022-09-09T12:46:19;0.73;;;0.73;;
18364;SDS011;9309;52.126;11.616;2022-09-09T12:48:52;1.70;;;1.00;;
18364;SDS011;9309;52.126;11.616;2022-09-09T12:51:21;0.60;;;0.60;;
18364;SDS011;9309;52.126;11.616;2022-09-09T12:53:53;1.23;;;0.80;;
18364;SDS011;9309;52.126;11.616;2022-09-09T12:56:21;1.30;;;0.75;;
18364;SDS011;9309;52.126;11.616;2022-09-09T12:58:52;2.03;;;0.50;;
18364;SDS011;9309;52.126;11.616;2022-09-09T13:01:23;0.88;;;0.60;;
18364;SDS011;9309;52.126;11.616;2022-09-09T13:03:52;0.63;;;0.63;;
18364;SDS011;9309;52.126;11.616;2022-09-09T13:06:20;0.50;;;0.50;;
18364;SDS011;9309;52.126;11.616;2022-09-09T13:08:48;1.23;;;0.68;;
18364;SDS011;9309;52.126;11.616;2022-09-09T13:11:16;0.80;;;0.80;;
18364;SDS011;9309;52.126;11.616;2022-09-09T13:13:50;0.52;;;0.52;;
18364;SDS011;9309;52.126;11.616;2022-09-09T13:16:20;0.57;;;0.57;;
18364;SDS011;9309;52.126;11.616;2022-09-09T13:18:51;0.50;;;0.50;;
18364;SDS011;9309;52.126;11.616;2022-09-09T13:21:18;0.80;;;0.80;;
18364;SDS011;9309;52.126;11.616;2022-09-09T13:23:48;4.28;;;1.15;;
18364;SDS011;9309;52.126;11.616;2022-09-09T13:26:20;0.75;;;0.75;;
18364;SDS011;9309;52.126;11.616;2022-09-09T13:28:50;2.90;;;0.98;;
18364;SDS011;9309;52.126;11.616;2022-09-09T13:31:23;0.50;;;0.50;;
18364;SDS011;9309;52.126;11.616;2022-09-09T13:33:54;0.75;;;0.70;;
18364;SDS011;9309;52.126;11.616;2022-09-09T13:36:27;1.23;;;0.60;;
18364;SDS011;9309;52.126;11.616;2022-09-09T13:38:57;0.88;;;0.68;;
18364;SDS011;9309;52.126;11.616;2022-09-09T13:41:34;1.88;;;0.80;;
18364;SDS011;9309;52.126;11.616;2022-09-09T13:44:02;1.10;;;0.90;;
18364;SDS011;9309;52.126;11.616;2022-09-09T13:46:34;1.20;;;0.70;;
18364;SDS011;9309;52.126;11.616;2022-09-09T13:49:17;2.95;;;0.82;;
18364;SDS011;9309;52.126;11.616;2022-09-09T13:51:47;0.75;;;0.75;;
18364;SDS011;9309;52.126;11.616;2022-09-09T13:54:16;2.25;;;0.98;;
18364;SDS011;9309;52.126;11.616;2022-09-09T13:56:44;1.08;;;1.08;;
18364;SDS011;9309;52.126;11.616;2022-09-09T13:59:12;1.80;;;0.90;;
18364;SDS011;9309;52.126;11.616;2022-09-09T14:01:43;4.15;;;0.90;;
18364;SDS011;9309;52.126;11.616;2022-09-09T14:04:10;1.60;;;0.90;;
18364;SDS011;9309;52.126;11.616;2022-09-09T14:06:38;5.53;;;2.00;;
18364;SDS011;9309;52.126;11.616;2022-09-09T14:09:06;1.20;;;1.10;;
18364;SDS011;9309;52.126;11.616;2022-09-09T14:11:33;1.13;;;1.02;;
18364;SDS011;9309;52.126;11.616;2022-09-09T14:14:00;1.70;;;1.15;;
18364;SDS011;9309;52.126;11.616;2022-09-09T14:16:28;3.60;;;1.00;;
18364;SDS011;9309;52.126;11.616;2022-09-09T14:18:56;1.50;;;1.00;;
18364;SDS011;9309;52.126;11.616;2022-09-09T14:21:24;3.03;;;1.05;;
18364;SDS011;9309;52.126;11.616;2022-09-09T14:23:52;0.82;;;0.75;;
18364;SDS011;9309;52.126;11.616;2022-09-09T14:26:19;1.48;;;0.82;;
18364;SDS011;9309;52.126;11.616;2022-09-09T14:28:47;1.50;;;1.08;;
18364;SDS011;9309;52.126;11.616;2022-09-09T14:31:15;2.33;;;1.08;;
18364;SDS011;9309;52.126;11.616;2022-09-09T14:33:42;1.45;;;1.10;;
18364;SDS011;9309;52.126;11.616;2022-09-09T14:36:11;0.90;;;0.90;;
18364;SDS011;9309;52.126;11.616;2022-09-09T14:38:38;2.03;;;0.80;;
18364;SDS011;9309;52.126;11.616;2022-09-09T14:41:05;0.60;;;0.60;;
18364;SDS011;9309;52.126;11.616;2022-09-09T14:43:32;0.90;;;0.90;;
18364;SDS011;9309;52.126;11.616;2022-09-09T14:46:04;2.88;;;0.93;;
18364;SDS011;9309;52.126;11.616;2022-09-09T14:48:31;1.67;;;0.82;;
18364;SDS011;9309;52.126;11.616;2022-09-09T14:51:04;2.33;;;0.90;;
18364;SDS011;9309;52.126;11.616;2022-09-09T14:53:33;0.93;;;0.88;;
18364;SDS011;9309;52.126;11.616;2022-09-09T14:56:03;0.98;;;0.88;;
18364;SDS011;9309;52.126;11.616;2022-09-09T14:58:31;0.95;;;0.85;;
18364;SDS011;9309;52.126;11.616;2022-09-09T15:01:01;1.88;;;0.88;;
18364;SDS011;9309;52.126;11.616;2022-09-09T15:03:30;1.17;;;0.70;;
18364;SDS011;9309;52.126;11.616;2022-09-09T15:05:56;0.98;;;0.98;;
18364;SDS011;9309;52.126;11.616;2022-09-09T15:08:24;0.50;;;0.50;;
18364;SDS011;9309;52.126;11.616;2022-09-09T15:10:59;0.70;;;0.70;;
18364;SDS011;9309;52.126;11.616;2022-09-09T15:13:27;0.80;;;0.63;;
18364;SDS011;9309;52.126;11.616;2022-09-09T15:15:55;0.80;;;0.80;;